Time;durP1;ratioP1;P1;durP2;ratioP2;P2;SDS_P1;SDS_P2;PMS_P1;PMS_P2;Temp;Humidity;BMP_temperature;BMP_pressure;BME280_temperature;BME280_humidity;BME280_pressure;Samples;Min_cycle;Max_cycle;Signal;HPM_P1;HPM_P2
2023/05/26 00:00:36;;;;;;;6.55;4.40;;;21.60;64.30;;;;;;4846873;28;93526;-88
2023/05/26 00:03:04;;;;;;;5.43;4.05;;;21.60;64.40;;;;;;4860728;28;92344;-90
2023/05/26 00:05:30;;;;;;;4.93;3.47;;;21.60;64.40;;;;;;4860799;28;95697;-88
2023/05/26 00:07:56;;;;;;;5.07;3.92;;;21.60;64.40;;;;;;4842147;29;95669;-93
2023/05/26 00:10:24;;;;;;;6.90;4.15;;;21.60;64.80;;;;;;4845528;29;93048;-84
2023/05/26 00:12:50;;;;;;;6.57;4.23;;;21.50;64.30;;;;;;4846904;29;92750;-90
2023/05/26 00:15:16;;;;;;;6.85;4.20;;;21.60;64.60;;;;;;4847373;28;93818;-89
2023/05/26 00:17:41;;;;;;;5.45;4.10;;;21.60;64.70;;;;;;4848375;29;92079;-92
2023/05/26 00:20:07;;;;;;;4.93;4.00;;;21.60;64.40;;;;;;4848051;28;92257;-89
2023/05/26 00:22:37;;;;;;;4.97;3.88;;;21.60;64.30;;;;;;4844219;29;92988;-87
2023/05/26 00:25:03;;;;;;;6.38;3.63;;;21.60;64.50;;;;;;4857976;28;95394;-89
2023/05/26 00:27:29;;;;;;;4.60;3.92;;;21.60;64.60;;;;;;4840311;28;95994;-86
2023/05/26 00:29:54;;;;;;;4.80;4.00;;;21.50;64.50;;;;;;4844739;29;92906;-86
2023/05/26 00:32:20;;;;;;;5.03;3.95;;;21.60;64.50;;;;;;4846513;29;92636;-89
2023/05/26 00:34:46;;;;;;;5.38;3.90;;;21.50;64.50;;;;;;4841558;29;94115;-94
2023/05/26 00:37:11;;;;;;;5.55;3.72;;;21.50;64.50;;;;;;4856152;28;96112;-88
2023/05/26 00:39:37;;;;;;;4.35;3.35;;;21.50;64.20;;;;;;4842443;28;92716;-86
2023/05/26 00:42:03;;;;;;;6.07;3.92;;;21.50;64.30;;;;;;4843316;29;91927;-86
2023/05/26 00:44:28;;;;;;;4.63;3.78;;;21.60;64.50;;;;;;4842414;28;94414;-92
2023/05/26 00:46:54;;;;;;;6.78;4.05;;;21.50;64.30;;;;;;4841952;29;93240;-92
2023/05/26 00:49:20;;;;;;;4.85;4.05;;;21.50;64.20;;;;;;4845185;29;92972;-88
2023/05/26 00:51:46;;;;;;;5.05;3.80;;;21.50;64.30;;;;;;4842335;29;92789;-89
2023/05/26 00:54:13;;;;;;;3.88;3.47;;;21.50;64.40;;;;;;4843497;28;93117;-85
2023/05/26 00:56:39;;;;;;;5.43;3.78;;;21.50;64.40;;;;;;4844265;29;93112;-91
2023/05/26 00:59:05;;;;;;;5.85;3.38;;;21.50;64.40;;;;;;4843270;29;92586;-91
2023/05/26 01:01:31;;;;;;;4.50;3.65;;;21.50;64.30;;;;;;4842569;29;94152;-90
2023/05/26 01:03:58;;;;;;;4.78;3.63;;;21.50;64.20;;;;;;4842228;29;92816;-92
2023/05/26 01:06:24;;;;;;;4.50;3.60;;;21.50;64.30;;;;;;4857249;28;95546;-92
2023/05/26 01:08:51;;;;;;;6.43;3.92;;;21.50;64.40;;;;;;4843561;28;92565;-93
2023/05/26 01:11:26;;;;;;;4.72;3.80;;;21.50;64.60;;;;;;4858720;28;92698;-90
2023/05/26 01:13:55;;;;;;;4.82;3.80;;;21.50;64.50;;;;;;4841844;28;94303;-87
2023/05/26 01:16:27;;;;;;;4.65;3.28;;;21.50;64.50;;;;;;4843474;29;93411;-91
2023/05/26 01:19:19;;;;;;;4.03;3.33;;;21.50;64.60;;;;;;4844757;29;92371;-89
2023/05/26 01:21:47;;;;;;;4.60;3.17;;;21.50;64.70;;;;;;4857975;28;92852;-90
2023/05/26 01:24:39;;;;;;;5.22;3.58;;;21.40;64.60;;;;;;4839548;28;95856;-91
2023/05/26 01:27:36;;;;;;;5.72;4.10;;;21.40;64.60;;;;;;4832555;29;92887;-86
2023/05/26 01:30:02;;;;;;;4.82;3.67;;;21.40;64.70;;;;;;4832491;29;93250;-88
2023/05/26 01:32:28;;;;;;;4.50;3.45;;;21.40;64.60;;;;;;4856810;28;91874;-91
2023/05/26 01:34:53;;;;;;;4.88;3.75;;;21.40;64.80;;;;;;4842304;28;92749;-87
2023/05/26 01:37:19;;;;;;;5.35;3.88;;;21.40;64.80;;;;;;4840187;28;92622;-91
2023/05/26 01:39:45;;;;;;;4.25;3.75;;;21.40;64.80;;;;;;4842345;29;94644;-93
2023/05/26 01:42:20;;;;;;;5.13;3.75;;;21.40;64.70;;;;;;4842812;29;92456;-92
2023/05/26 01:44:55;;;;;;;5.32;3.65;;;21.40;64.90;;;;;;4856752;28;95593;-94
2023/05/26 01:47:23;;;;;;;4.05;3.40;;;21.30;64.70;;;;;;4844180;28;92827;-91
2023/05/26 01:49:51;;;;;;;4.30;3.83;;;21.40;64.70;;;;;;4841530;29;92101;-92
2023/05/26 01:52:18;;;;;;;4.00;3.25;;;21.30;64.50;;;;;;4846031;28;92850;-91
2023/05/26 01:54:54;;;;;;;4.35;3.47;;;21.30;64.60;;;;;;4847925;28;93538;-94
2023/05/26 01:57:20;;;;;;;5.82;3.70;;;21.30;64.80;;;;;;4842908;28;95853;-92
2023/05/26 01:59:46;;;;;;;5.20;3.78;;;21.30;64.70;;;;;;4843716;29;92950;-92
2023/05/26 02:02:11;;;;;;;5.22;3.70;;;21.30;64.80;;;;;;4843079;29;93105;-94
2023/05/26 02:04:37;;;;;;;4.22;3.40;;;21.30;64.80;;;;;;4843498;29;95806;-91
2023/05/26 02:07:05;;;;;;;4.93;3.45;;;21.30;64.70;;;;;;4853011;28;93762;-90
2023/05/26 02:09:32;;;;;;;4.37;3.67;;;21.30;64.80;;;;;;4866733;28;92632;-94
2023/05/26 02:11:57;;;;;;;4.10;3.20;;;21.30;64.90;;;;;;4852931;29;92444;-92
2023/05/26 02:14:23;;;;;;;3.97;3.40;;;21.30;64.80;;;;;;4859625;28;95679;-90
2023/05/26 02:16:48;;;;;;;3.83;3.10;;;21.30;64.70;;;;;;4842766;28;92446;-93
2023/05/26 02:19:14;;;;;;;4.18;3.20;;;21.30;64.80;;;;;;4840178;29;92422;-87
2023/05/26 02:21:40;;;;;;;5.30;3.53;;;21.30;64.80;;;;;;4837865;29;91602;-92
2023/05/26 02:24:06;;;;;;;3.72;3.22;;;21.30;64.80;;;;;;4840599;29;93400;-93
2023/05/26 02:26:32;;;;;;;5.40;3.72;;;21.30;64.90;;;;;;4839331;29;94801;-87
2023/05/26 02:28:58;;;;;;;4.15;3.20;;;21.30;65.00;;;;;;4838846;29;93273;-91
2023/05/26 02:31:24;;;;;;;5.28;3.08;;;21.20;64.70;;;;;;4842724;28;92991;-90
2023/05/26 02:33:50;;;;;;;3.70;3.30;;;21.20;64.90;;;;;;4855574;28;94876;-93
2023/05/26 02:36:16;;;;;;;5.53;3.63;;;21.20;65.00;;;;;;4837280;28;93368;-93
2023/05/26 02:38:42;;;;;;;3.40;3.05;;;21.20;64.90;;;;;;4840286;29;93113;-93
2023/05/26 02:41:08;;;;;;;4.82;3.50;;;21.20;64.70;;;;;;4837959;29;92167;-93
2023/05/26 02:43:34;;;;;;;5.38;3.22;;;21.20;64.90;;;;;;4838491;29;93401;-86
2023/05/26 02:46:00;;;;;;;4.93;3.28;;;21.20;64.80;;;;;;4852235;28;95821;-93
2023/05/26 02:48:26;;;;;;;4.95;3.10;;;21.20;64.90;;;;;;4839749;28;92625;-95
2023/05/26 02:50:54;;;;;;;5.47;4.07;;;21.20;64.90;;;;;;4839717;29;92375;-93
2023/05/26 02:53:21;;;;;;;4.47;3.33;;;21.20;64.90;;;;;;4837974;29;93615;-93
2023/05/26 02:55:47;;;;;;;5.22;3.83;;;21.20;64.90;;;;;;4839065;29;92863;-90
2023/05/26 02:58:13;;;;;;;4.72;3.53;;;21.20;65.00;;;;;;4837639;29;93005;-94
2023/05/26 03:00:39;;;;;;;4.38;3.65;;;21.20;65.00;;;;;;4841201;28;92510;-94
2023/05/26 03:03:04;;;;;;;5.88;3.25;;;21.20;65.00;;;;;;4834939;29;95343;-94
2023/05/26 03:05:30;;;;;;;6.03;3.88;;;21.20;65.00;;;;;;4839285;28;93375;-92
2023/05/26 03:07:55;;;;;;;5.20;3.72;;;21.20;65.00;;;;;;4846006;28;92672;-91
2023/05/26 03:10:21;;;;;;;4.43;3.25;;;21.20;65.10;;;;;;4838787;28;92414;-86
2023/05/26 03:12:47;;;;;;;5.55;3.40;;;21.20;64.90;;;;;;4839129;28;92484;-93
2023/05/26 03:15:12;;;;;;;5.05;3.08;;;21.20;65.00;;;;;;4838017;28;92505;-89
2023/05/26 03:17:38;;;;;;;5.03;3.38;;;21.20;65.00;;;;;;4839995;29;94384;-92
2023/05/26 03:20:05;;;;;;;4.85;3.00;;;21.10;64.90;;;;;;4839264;29;93823;-93
2023/05/26 03:22:30;;;;;;;4.80;3.63;;;21.10;64.80;;;;;;4837991;29;95509;-89
2023/05/26 03:24:56;;;;;;;4.10;2.95;;;21.10;64.90;;;;;;4839401;28;92417;-95
2023/05/26 03:27:26;;;;;;;4.45;3.47;;;21.10;64.90;;;;;;4838651;29;92408;-88
2023/05/26 03:29:51;;;;;;;3.78;3.13;;;21.10;65.00;;;;;;4837676;29;93123;-92
2023/05/26 03:32:17;;;;;;;3.78;3.08;;;21.10;65.10;;;;;;4837504;29;92892;-91
2023/05/26 03:34:44;;;;;;;4.10;3.38;;;21.10;64.90;;;;;;4837989;29;95728;-89
2023/05/26 03:37:11;;;;;;;4.55;2.97;;;21.10;65.00;;;;;;4837983;29;93098;-86
2023/05/26 03:39:37;;;;;;;3.72;2.80;;;21.10;65.00;;;;;;4839922;28;92869;-93
2023/05/26 03:42:03;;;;;;;5.05;3.40;;;21.10;65.10;;;;;;4838041;29;95339;-87
2023/05/26 03:44:28;;;;;;;4.72;3.10;;;21.10;64.90;;;;;;4839222;28;92453;-92
2023/05/26 03:46:54;;;;;;;4.88;3.65;;;21.10;64.90;;;;;;4853013;28;92370;-92
2023/05/26 03:49:20;;;;;;;4.15;2.90;;;21.10;64.80;;;;;;4837983;29;93023;-94
2023/05/26 03:51:45;;;;;;;4.95;3.22;;;21.10;64.80;;;;;;4838399;29;92920;-89
2023/05/26 03:54:11;;;;;;;5.13;3.38;;;21.10;65.00;;;;;;4837002;29;95582;-93
2023/05/26 03:56:37;;;;;;;4.15;3.15;;;21.10;64.90;;;;;;4841631;29;92090;-89
2023/05/26 03:59:03;;;;;;;5.78;3.40;;;21.00;65.00;;;;;;4839733;28;97012;-93
2023/05/26 04:01:29;;;;;;;3.65;3.15;;;21.10;65.00;;;;;;4838171;29;95682;-87
2023/05/26 04:03:54;;;;;;;4.18;2.88;;;21.10;65.80;;;;;;4837339;29;93598;-90
2023/05/26 04:06:22;;;;;;;3.63;2.95;;;21.00;65.00;;;;;;4841379;28;93800;-94
2023/05/26 04:08:48;;;;;;;3.38;2.60;;;21.00;65.00;;;;;;4835842;29;92903;-91
2023/05/26 04:11:15;;;;;;;4.70;3.38;;;21.10;65.10;;;;;;4837839;29;95219;-92
2023/05/26 04:13:40;;;;;;;5.35;3.53;;;21.10;65.80;;;;;;4842394;28;92897;-94
2023/05/26 04:16:07;;;;;;;4.10;2.97;;;21.10;65.00;;;;;;4841755;29;92125;-92
2023/05/26 04:18:33;;;;;;;6.25;3.70;;;21.10;65.00;;;;;;4853686;28;92899;-90
2023/05/26 04:20:59;;;;;;;4.90;3.67;;;21.10;65.00;;;;;;4852736;28;95914;-93
2023/05/26 04:23:25;;;;;;;4.55;3.38;;;21.10;64.80;;;;;;4838467;29;92643;-92
2023/05/26 04:25:51;;;;;;;4.68;3.17;;;21.10;64.90;;;;;;4841107;29;92510;-94
2023/05/26 04:28:16;;;;;;;4.70;3.28;;;21.10;65.00;;;;;;4854728;28;93095;-87
2023/05/26 04:30:42;;;;;;;4.43;3.30;;;21.10;64.80;;;;;;4837987;28;93623;-94
2023/05/26 04:33:09;;;;;;;4.18;3.20;;;21.10;64.80;;;;;;4841502;28;93592;-90
2023/05/26 04:35:35;;;;;;;3.88;3.13;;;21.10;64.70;;;;;;4839738;29;92572;-92
2023/05/26 04:38:04;;;;;;;3.50;2.70;;;21.10;64.70;;;;;;4840672;28;92625;-92
2023/05/26 04:40:34;;;;;;;3.28;2.88;;;21.10;64.60;;;;;;4839665;29;94485;-90
2023/05/26 04:43:00;;;;;;;4.15;3.03;;;21.20;64.60;;;;;;4838500;29;95708;-92
2023/05/26 04:45:27;;;;;;;3.63;2.97;;;21.20;64.70;;;;;;4843418;29;92979;-92
2023/05/26 04:47:54;;;;;;;2.88;2.45;;;21.10;64.50;;;;;;4839785;29;92870;-89
2023/05/26 04:50:23;;;;;;;5.85;3.28;;;21.20;64.60;;;;;;4841615;28;92947;-92
2023/05/26 04:52:51;;;;;;;3.17;2.53;;;21.20;64.60;;;;;;4841896;28;92517;-92
2023/05/26 04:55:17;;;;;;;5.50;3.20;;;21.20;64.60;;;;;;4841274;29;93060;-93
2023/05/26 04:57:43;;;;;;;3.97;2.60;;;21.20;64.60;;;;;;4838625;29;93104;-92
2023/05/26 05:00:10;;;;;;;4.78;2.97;;;21.20;64.60;;;;;;4840009;29;95648;-91
2023/05/26 05:02:36;;;;;;;4.22;3.22;;;21.20;64.60;;;;;;4839335;29;92943;-94
2023/05/26 05:05:02;;;;;;;5.00;3.15;;;21.30;64.70;;;;;;4840818;29;92360;-92
2023/05/26 05:07:28;;;;;;;4.68;2.97;;;21.30;64.70;;;;;;4841661;28;92666;-89
2023/05/26 05:09:53;;;;;;;4.28;2.75;;;21.30;64.70;;;;;;4854476;28;95857;-90
2023/05/26 05:12:19;;;;;;;3.85;2.95;;;21.30;64.70;;;;;;4838444;29;92985;-90
2023/05/26 05:14:45;;;;;;;3.58;2.72;;;21.30;64.80;;;;;;4843775;29;93093;-91
2023/05/26 05:17:11;;;;;;;4.15;3.25;;;21.30;64.70;;;;;;4841337;28;92971;-90
2023/05/26 05:19:37;;;;;;;3.72;2.60;;;21.30;64.60;;;;;;4840634;28;94136;-91
2023/05/26 05:22:02;;;;;;;3.70;2.90;;;21.30;64.50;;;;;;4841735;29;93737;-89
2023/05/26 05:24:28;;;;;;;4.32;2.75;;;21.30;64.60;;;;;;4841622;28;92803;-91
2023/05/26 05:26:54;;;;;;;3.75;2.70;;;21.40;64.60;;;;;;4842914;29;92928;-92
2023/05/26 05:29:19;;;;;;;3.50;2.67;;;21.40;64.60;;;;;;4844509;29;92993;-94
2023/05/26 05:31:45;;;;;;;3.60;2.95;;;21.40;64.50;;;;;;4841545;28;93906;-92
2023/05/26 05:34:11;;;;;;;3.28;2.55;;;21.40;64.50;;;;;;4850926;28;92194;-89
2023/05/26 05:36:36;;;;;;;4.07;3.08;;;21.50;64.40;;;;;;4844439;29;92114;-89
2023/05/26 05:39:02;;;;;;;4.63;3.15;;;21.40;64.10;;;;;;4843829;29;93101;-91
2023/05/26 05:41:28;;;;;;;4.47;2.88;;;21.50;64.30;;;;;;4840237;29;94161;-93
2023/05/26 05:43:56;;;;;;;4.18;2.85;;;21.50;64.20;;;;;;4857249;28;93557;-92
2023/05/26 05:46:26;;;;;;;4.50;3.08;;;21.60;64.10;;;;;;4857086;28;92046;-91
2023/05/26 05:48:51;;;;;;;4.60;2.70;;;21.60;64.10;;;;;;4857620;28;95688;-92
2023/05/26 05:51:17;;;;;;;5.25;2.70;;;21.60;64.00;;;;;;4843870;29;95581;-93
2023/05/26 05:53:44;;;;;;;3.67;3.30;;;21.70;64.00;;;;;;4843508;29;92548;-94
2023/05/26 05:56:09;;;;;;;2.85;2.60;;;21.70;63.70;;;;;;4859138;28;92494;-93
2023/05/26 05:58:35;;;;;;;4.15;2.70;;;21.70;63.60;;;;;;4844248;29;93318;-93
2023/05/26 06:01:01;;;;;;;4.22;3.28;;;21.80;63.60;;;;;;4843241;28;92864;-92
2023/05/26 06:03:26;;;;;;;4.47;2.80;;;21.80;63.30;;;;;;4843864;29;92993;-93
2023/05/26 06:05:52;;;;;;;3.55;2.53;;;21.80;63.70;;;;;;4844987;28;92148;-91
2023/05/26 06:08:18;;;;;;;3.83;2.50;;;21.80;63.40;;;;;;4842594;28;93558;-89
2023/05/26 06:10:44;;;;;;;5.70;3.10;;;21.80;63.50;;;;;;4857885;28;94984;-94
2023/05/26 06:13:09;;;;;;;3.30;2.60;;;21.80;63.50;;;;;;4843259;28;92604;-87
2023/05/26 06:15:35;;;;;;;4.05;3.08;;;21.90;63.60;;;;;;4841949;29;92605;-92
2023/05/26 06:18:01;;;;;;;4.50;2.50;;;21.80;63.50;;;;;;4842385;29;93791;-89
2023/05/26 06:20:26;;;;;;;9.82;2.67;;;21.90;63.10;;;;;;4837669;29;95293;-87
2023/05/26 06:22:52;;;;;;;6.20;2.50;;;21.90;60.00;;;;;;4838407;28;92842;-87
2023/05/26 06:25:17;;;;;;;5.35;2.80;;;21.80;58.60;;;;;;4836409;29;92153;-89
2023/05/26 06:27:44;;;;;;;5.30;3.22;;;21.70;59.10;;;;;;4836365;29;95700;-86
2023/05/26 06:30:10;;;;;;;9.25;4.13;;;21.60;59.60;;;;;;4837222;28;92451;-85
2023/05/26 06:32:36;;;;;;;13.80;4.70;;;21.60;59.20;;;;;;4837707;28;93101;-87
2023/05/26 06:35:01;;;;;;;9.98;3.95;;;21.60;58.50;;;;;;4829744;29;92447;-87
2023/05/26 06:37:27;;;;;;;13.60;5.43;;;21.50;58.40;;;;;;4838928;28;92769;-85
2023/05/26 06:39:52;;;;;;;14.70;6.28;;;21.40;58.40;;;;;;4835999;28;94343;-89
2023/05/26 06:42:18;;;;;;;15.55;6.43;;;21.50;56.20;;;;;;4837842;29;93887;-88
2023/05/26 06:44:44;;;;;;;16.73;6.07;;;21.50;56.40;;;;;;4838616;29;92841;-87
2023/05/26 06:47:09;;;;;;;15.63;6.85;;;21.50;55.30;;;;;;4837767;29;94010;-87
2023/05/26 06:49:35;;;;;;;15.40;7.10;;;21.50;55.10;;;;;;4834249;29;95960;-87
2023/05/26 06:52:01;;;;;;;17.75;7.88;;;21.50;54.00;;;;;;4834449;28;92473;-89
2023/05/26 06:54:26;;;;;;;19.27;7.93;;;21.40;54.80;;;;;;4836437;28;92229;-89
2023/05/26 06:56:52;;;;;;;15.75;7.57;;;21.30;53.50;;;;;;4838770;29;93409;-88
2023/05/26 06:59:17;;;;;;;15.50;6.75;;;21.30;52.60;;;;;;4837894;29;96317;-88
2023/05/26 07:01:43;;;;;;;22.00;7.63;;;21.30;53.30;;;;;;4837480;28;92951;-85
2023/05/26 07:04:09;;;;;;;17.27;7.88;;;21.30;53.70;;;;;;4841261;28;92767;-86
2023/05/26 07:06:35;;;;;;;20.42;7.95;;;21.40;53.70;;;;;;4844427;28;96630;-87
2023/05/26 07:09:01;;;;;;;20.13;7.68;;;21.40;53.10;;;;;;4825218;29;95435;-85
2023/05/26 07:11:27;;;;;;;20.27;7.43;;;21.40;53.20;;;;;;4823684;29;93022;-86
2023/05/26 07:13:52;;;;;;;14.95;6.38;;;21.30;53.10;;;;;;4825799;29;92307;-86
2023/05/26 07:16:21;;;;;;;23.02;7.97;;;21.30;53.10;;;;;;4827737;29;93097;-89
2023/05/26 07:18:47;;;;;;;16.13;7.00;;;21.50;52.90;;;;;;4848287;28;95699;-90
2023/05/26 07:21:14;;;;;;;34.88;10.95;;;21.50;52.80;;;;;;4828703;29;94300;-86
2023/05/26 07:23:40;;;;;;;36.78;10.60;;;21.50;52.70;;;;;;4825164;29;92953;-86
2023/05/26 07:26:05;;;;;;;46.00;12.68;;;21.60;52.50;;;;;;4839501;28;95753;-85
2023/05/26 07:28:31;;;;;;;47.63;13.38;;;21.50;52.90;;;;;;4825763;29;92541;-87
2023/05/26 07:30:57;;;;;;;50.60;13.63;;;21.50;52.90;;;;;;4822042;29;92790;-86
2023/05/26 07:33:22;;;;;;;49.30;13.77;;;21.50;53.00;;;;;;4839287;28;92930;-88
2023/05/26 07:35:48;;;;;;;42.55;13.43;;;21.40;53.00;;;;;;4825301;28;93037;-87
2023/05/26 07:38:14;;;;;;;42.17;12.38;;;21.40;53.20;;;;;;4841964;28;95263;-87
2023/05/26 07:40:39;;;;;;;39.00;13.00;;;21.40;53.20;;;;;;4842897;28;93234;-86
2023/05/26 07:43:11;;;;;;;48.88;14.32;;;21.40;53.80;;;;;;4827568;28;92102;-87
2023/05/26 07:45:36;;;;;;;44.17;12.50;;;21.40;53.60;;;;;;4833625;29;94059;-88
2023/05/26 07:48:02;;;;;;;42.60;13.02;;;21.50;53.70;;;;;;4836738;28;96344;-89
2023/05/26 07:50:28;;;;;;;39.50;12.73;;;21.50;53.60;;;;;;4838067;29;92447;-86
2023/05/26 07:52:53;;;;;;;34.92;12.23;;;21.40;53.70;;;;;;4828760;29;92994;-88
2023/05/26 07:55:19;;;;;;;46.28;13.48;;;21.50;54.00;;;;;;4834506;28;93440;-86
2023/05/26 07:57:45;;;;;;;34.53;11.30;;;21.50;54.20;;;;;;4851343;28;94844;-86
2023/05/26 08:00:11;;;;;;;30.13;10.05;;;21.50;54.70;;;;;;4851754;28;93019;-87
2023/05/26 08:02:38;;;;;;;33.63;10.68;;;21.50;54.00;;;;;;4841623;28;91713;-88
2023/05/26 08:05:04;;;;;;;35.38;11.50;;;21.50;54.10;;;;;;4837223;28;92732;-88
2023/05/26 08:07:30;;;;;;;33.33;11.93;;;21.50;54.50;;;;;;4835630;29;96473;-88
2023/05/26 08:09:55;;;;;;;29.90;11.02;;;21.50;54.60;;;;;;4821193;28;93015;-88
2023/05/26 08:12:21;;;;;;;38.75;12.10;;;21.50;54.60;;;;;;4834926;28;92890;-87
2023/05/26 08:14:48;;;;;;;40.20;12.70;;;21.50;54.40;;;;;;4855741;28;94687;-86
2023/05/26 08:17:14;;;;;;;31.52;11.35;;;21.50;54.80;;;;;;4850549;28;94612;-87
2023/05/26 08:19:39;;;;;;;35.10;11.15;;;21.60;54.60;;;;;;4824793;28;93545;-86
2023/05/26 08:22:05;;;;;;;31.70;12.20;;;21.60;54.40;;;;;;4844357;28;92814;-85
2023/05/26 08:24:31;;;;;;;38.50;11.45;;;21.60;54.70;;;;;;4828679;29;93590;-86
2023/05/26 08:26:56;;;;;;;28.38;11.35;;;21.60;54.80;;;;;;4845072;28;95200;-85
2023/05/26 08:29:22;;;;;;;29.77;11.05;;;21.60;54.80;;;;;;4832158;29;92510;-84
2023/05/26 08:31:49;;;;;;;28.58;10.32;;;21.70;54.60;;;;;;4829820;29;94488;-85
2023/05/26 08:34:16;;;;;;;26.52;11.07;;;21.70;54.40;;;;;;4829900;28;93617;-85
2023/05/26 08:36:41;;;;;;;31.25;11.48;;;21.70;54.80;;;;;;4831832;29;94896;-86
2023/05/26 08:39:07;;;;;;;25.42;10.45;;;21.80;54.70;;;;;;4839257;29;92866;-84
2023/05/26 08:41:42;;;;;;;31.40;10.82;;;21.80;54.90;;;;;;4841506;28;92663;-88
2023/05/26 08:44:08;;;;;;;27.63;9.45;;;21.80;55.30;;;;;;4838632;28;92837;-86
2023/05/26 08:46:36;;;;;;;23.38;10.50;;;21.90;55.60;;;;;;4850111;28;93898;-84
2023/05/26 08:49:02;;;;;;;29.20;10.40;;;21.80;55.00;;;;;;4848871;28;92365;-86
2023/05/26 08:51:30;;;;;;;26.92;10.25;;;21.80;55.20;;;;;;4840377;29;91880;-86
2023/05/26 08:53:56;;;;;;;26.17;10.00;;;21.80;55.30;;;;;;4836785;28;92843;-85
2023/05/26 08:56:22;;;;;;;23.85;9.18;;;21.80;55.20;;;;;;4855058;28;92647;-84
2023/05/26 08:58:51;;;;;;;30.25;10.35;;;21.90;55.30;;;;;;4838803;29;93944;-85
2023/05/26 09:01:17;;;;;;;33.15;10.30;;;21.90;55.50;;;;;;4839596;29;92333;-86
2023/05/26 09:03:42;;;;;;;29.58;11.48;;;21.90;55.70;;;;;;4840483;29;93250;-85
2023/05/26 09:06:08;;;;;;;37.83;10.75;;;21.90;55.60;;;;;;4842129;28;92866;-85
2023/05/26 09:08:33;;;;;;;28.80;9.88;;;21.90;55.70;;;;;;4844341;28;92610;-86
2023/05/26 09:11:25;;;;;;;34.65;11.38;;;21.90;55.70;;;;;;4858011;28;93150;-85
2023/05/26 09:13:52;;;;;;;28.48;10.27;;;21.90;55.80;;;;;;4840116;28;92963;-86
2023/05/26 09:16:21;;;;;;;34.80;10.82;;;21.90;55.80;;;;;;4841568;28;92788;-86
2023/05/26 09:18:47;;;;;;;;;;;21.90;55.80;;;;;;4858961;28;92428;-85
2023/05/26 09:21:12;;;;;;;24.63;10.05;;;21.90;56.00;;;;;;4849122;28;92092;-86
2023/05/26 09:23:38;;;;;;;33.58;11.10;;;21.90;56.30;;;;;;4861137;28;93949;-85
2023/05/26 09:26:06;;;;;;;29.23;10.95;;;22.00;56.30;;;;;;4858962;28;93772;-85
2023/05/26 09:28:31;;;;;;;35.38;10.90;;;22.00;56.40;;;;;;4841449;28;92611;-86
2023/05/26 09:30:57;;;;;;;31.60;10.55;;;22.00;56.50;;;;;;4839184;29;92550;-85
2023/05/26 09:33:23;;;;;;;30.92;10.27;;;22.00;55.90;;;;;;4830736;29;93726;-86
2023/05/26 09:35:49;;;;;;;31.25;11.75;;;22.00;56.00;;;;;;4828778;29;93997;-85
2023/05/26 09:38:16;;;;;;;32.38;10.98;;;22.00;56.30;;;;;;4832603;29;92633;-85
2023/05/26 09:40:47;;;;;;;31.80;11.30;;;22.00;56.50;;;;;;4830772;29;91934;-85
2023/05/26 09:43:15;;;;;;;25.52;10.40;;;21.90;56.60;;;;;;4830161;29;93176;-86
2023/05/26 09:45:41;;;;;;;29.42;10.13;;;21.90;56.70;;;;;;4828642;29;94055;-87
2023/05/26 09:48:08;;;;;;;30.40;11.70;;;21.90;56.70;;;;;;4829754;29;94064;-85
2023/05/26 09:50:36;;;;;;;23.35;9.15;;;21.90;56.70;;;;;;4834726;28;92693;-85
2023/05/26 09:53:03;;;;;;;23.85;10.00;;;21.90;56.80;;;;;;4831132;29;94882;-86
2023/05/26 09:55:30;;;;;;;27.10;10.18;;;21.90;56.70;;;;;;4826073;29;95420;-86
2023/05/26 09:58:03;;;;;;;26.45;10.52;;;21.90;56.90;;;;;;4849141;28;93280;-84
2023/05/26 10:00:29;;;;;;;24.85;10.05;;;22.00;56.80;;;;;;4849344;28;93260;-85
2023/05/26 10:02:56;;;;;;;24.13;9.02;;;22.00;56.90;;;;;;4834564;28;93241;-86
2023/05/26 10:05:22;;;;;;;27.92;9.65;;;22.00;56.60;;;;;;4842420;28;95818;-86
2023/05/26 10:07:51;;;;;;;25.67;10.07;;;22.00;56.80;;;;;;4833836;29;92264;-85
2023/05/26 10:10:17;;;;;;;24.90;10.00;;;22.00;56.80;;;;;;4831689;29;92708;-87
2023/05/26 10:12:43;;;;;;;28.48;10.65;;;22.00;56.90;;;;;;4831234;29;93907;-84
2023/05/26 10:15:10;;;;;;;26.38;10.18;;;22.00;56.90;;;;;;4847813;28;97225;-85
2023/05/26 10:17:35;;;;;;;27.23;10.70;;;22.00;56.80;;;;;;4831172;29;92761;-85
2023/05/26 10:20:03;;;;;;;19.63;9.57;;;22.00;56.90;;;;;;4851130;28;92730;-87
2023/05/26 10:22:39;;;;;;;23.05;9.88;;;22.00;57.00;;;;;;4831065;29;96309;-86
2023/05/26 10:25:22;;;;;;;26.40;9.60;;;22.10;57.20;;;;;;4844906;28;95655;-86
2023/05/26 10:28:08;;;;;;;24.83;9.93;;;22.10;57.00;;;;;;4838046;29;92686;-89
2023/05/26 10:30:34;;;;;;;24.25;9.05;;;22.20;57.20;;;;;;4829676;29;91809;-85
2023/05/26 10:33:15;;;;;;;28.73;9.13;;;22.20;57.00;;;;;;4836456;29;93380;-87
2023/05/26 10:35:55;;;;;;;23.52;9.05;;;22.20;56.90;;;;;;4835383;29;93425;-86
2023/05/26 10:38:35;;;;;;;20.50;8.95;;;22.20;57.20;;;;;;4822513;29;93870;-86
2023/05/26 10:41:01;;;;;;;22.55;9.23;;;22.20;57.10;;;;;;4851597;28;92807;-86
2023/05/26 10:43:27;;;;;;;24.35;9.45;;;22.20;57.40;;;;;;4839586;29;93264;-87
2023/05/26 10:45:57;;;;;;;20.70;7.85;;;22.20;57.30;;;;;;4851376;28;95637;-86
2023/05/26 10:48:53;;;;;;;20.67;8.20;;;22.30;57.30;;;;;;4832422;28;92470;-89
2023/05/26 10:51:28;;;;;;;28.45;9.18;;;22.30;57.20;;;;;;4830726;29;93226;-87
2023/05/26 10:53:56;;;;;;;22.40;8.23;;;22.30;57.40;;;;;;4850996;28;99745;-88
2023/05/26 10:56:35;;;;;;;25.95;8.85;;;22.30;57.60;;;;;;4842927;29;93744;-89
2023/05/26 10:59:02;;;;;;;19.75;7.60;;;22.30;57.60;;;;;;4839837;29;92644;-90
2023/05/26 11:01:32;;;;;;;18.92;7.80;;;22.30;57.00;;;;;;4839052;29;92424;-91
2023/05/26 11:03:57;;;;;;;;;;;22.20;57.40;;;;;;4855595;28;96486;-89
2023/05/26 11:06:54;;;;;;;20.02;7.50;;;22.20;57.70;;;;;;4842085;29;93215;-89
2023/05/26 11:09:22;;;;;;;20.23;8.25;;;22.20;57.70;;;;;;4832487;29;93215;-91
2023/05/26 11:11:57;;;;;;;20.90;8.27;;;22.10;57.80;;;;;;4849938;28;93419;-89
2023/05/26 11:14:32;;;;;;;25.75;8.55;;;22.10;57.80;;;;;;4841482;29;92860;-92
2023/05/26 11:17:03;;;;;;;23.88;8.60;;;22.10;58.20;;;;;;4830325;29;92901;-89
2023/05/26 11:19:28;;;;;;;25.25;8.52;;;22.10;58.50;;;;;;4832236;29;93355;-89
2023/05/26 11:21:54;;;;;;;25.15;9.48;;;22.10;58.10;;;;;;4835205;28;92256;-90
2023/05/26 11:24:21;;;;;;;24.80;7.53;;;22.00;57.90;;;;;;4840558;29;94396;-90
2023/05/26 11:26:48;;;;;;;22.70;7.30;;;21.90;55.90;;;;;;4839411;29;93085;-89
2023/05/26 11:29:13;;;;;;;26.60;7.22;;;21.80;53.20;;;;;;4838711;29;93515;-87
2023/05/26 11:31:39;;;;;;;20.80;7.78;;;21.90;54.10;;;;;;4838873;29;93593;-88
2023/05/26 11:34:07;;;;;;;21.77;7.50;;;21.80;54.90;;;;;;4839247;28;93191;-88
2023/05/26 11:36:33;;;;;;;24.02;7.50;;;21.80;55.20;;;;;;4840076;28;92950;-89
2023/05/26 11:39:01;;;;;;;22.27;7.35;;;21.70;52.50;;;;;;4832689;28;93103;-87
2023/05/26 11:41:28;;;;;;;23.83;7.88;;;21.80;55.10;;;;;;4828964;29;93089;-86
2023/05/26 11:43:54;;;;;;;22.20;8.00;;;21.90;55.30;;;;;;4847097;28;95467;-86
2023/05/26 11:46:21;;;;;;;21.40;6.90;;;21.80;55.30;;;;;;4825506;29;95338;-87
2023/05/26 11:48:47;;;;;;;22.52;7.50;;;21.80;54.90;;;;;;4836631;29;92925;-88
2023/05/26 11:51:19;;;;;;;20.95;6.93;;;21.80;54.90;;;;;;4839526;29;92552;-89
2023/05/26 11:53:46;;;;;;;17.77;7.03;;;21.90;54.80;;;;;;4839043;29;93748;-85
2023/05/26 11:56:13;;;;;;;23.02;6.63;;;21.90;54.60;;;;;;4839348;28;93477;-85
2023/05/26 11:58:48;;;;;;;19.52;6.47;;;21.90;54.30;;;;;;4840959;29;92545;-87
2023/05/26 12:01:14;;;;;;;17.63;6.72;;;21.90;54.50;;;;;;4839996;29;92337;-88
2023/05/26 12:03:44;;;;;;;20.20;6.15;;;21.90;54.20;;;;;;4839885;29;93558;-89
2023/05/26 12:06:15;;;;;;;16.02;6.90;;;21.90;54.10;;;;;;4843630;29;94661;-88
2023/05/26 12:08:57;;;;;;;16.70;6.43;;;21.90;54.20;;;;;;4841269;29;92868;-89
2023/05/26 12:11:31;;;;;;;21.83;7.13;;;21.90;54.20;;;;;;4839831;29;92227;-89
2023/05/26 12:13:58;;;;;;;18.70;6.95;;;21.90;54.20;;;;;;4841376;29;92542;-87
2023/05/26 12:16:33;;;;;;;15.75;6.80;;;21.90;54.30;;;;;;4840143;29;93100;-88
2023/05/26 12:19:03;;;;;;;16.50;6.68;;;21.90;54.30;;;;;;4840151;29;94988;-87
2023/05/26 12:21:29;;;;;;;16.98;6.18;;;21.90;54.30;;;;;;4841876;29;92564;-85
2023/05/26 12:23:57;;;;;;;14.25;5.63;;;21.90;54.40;;;;;;4838090;28;94859;-88
2023/05/26 12:26:27;;;;;;;17.48;5.97;;;21.90;54.50;;;;;;4838604;29;93316;-88
2023/05/26 12:29:10;;;;;;;14.73;5.70;;;21.90;54.50;;;;;;4841558;29;93385;-88
2023/05/26 12:31:44;;;;;;;19.70;5.40;;;21.90;54.50;;;;;;4836840;29;93174;-89
2023/05/26 12:34:12;;;;;;;17.80;6.38;;;21.90;54.50;;;;;;4843165;28;92971;-88
2023/05/26 12:36:38;;;;;;;17.70;6.00;;;21.90;54.70;;;;;;4845145;29;94688;-88
2023/05/26 12:39:04;;;;;;;15.48;6.28;;;21.90;54.80;;;;;;4844250;29;92118;-88
2023/05/26 12:41:30;;;;;;;13.63;5.55;;;21.90;54.70;;;;;;4843002;29;92618;-88